O'neill, Nebraska
Current Conditions -  °F | °C
As of 9:55 PM on Saturday 20 Dec 2014 (Local Time) from KONL Reporting Station
Haze Haze  
Wind Chill: 27°   Ceiling: 200
Heat Index: 32°   Visibility: 0.75mi
Dew Point: 32°   Wind: 5mph
Humidity: 100%   Direction: 180°S
Pressure: 29.92"   Gusts: NA
Location:  42.47°N, 98.68°W
Report Text: KONL 210355Z AUTO 18004KT 3/4SM BR OVC002 00/00 A2992 RMK AO2 T10021002
Loading
Personal Weather Stations






























Interactive Weather Map New forecast layout! Learn more

10-Day Weather Forecast

Advertisements
Track Severe Weather on mobile